EDT,Max TemperatureF,Mean TemperatureF,Min TemperatureF,Max Dew PointF,MeanDew PointF,Min DewpointF,Max Humidity, Mean Humidity, Min Humidity, Max Sea Level PressureIn, Mean Sea Level PressureIn, Min Sea Level PressureIn, Max VisibilityMiles, Mean VisibilityMiles, Min VisibilityMiles, Max Wind SpeedMPH, Mean Wind SpeedMPH, Max Gust SpeedMPH,PrecipitationIn, CloudCover, Events, WindDirDegrees
2013-5-1,69,54,41,42,35,31,76,49,28,30.45,30.40,30.32,10,10,10,13,6,20,0.00,0,,97
2013-5-2,70,56,42,46,42,37,89,62,37,30.46,30.40,30.32,10,10,10,10,2,,0.00,0,,137
2013-5-3,66,54,42,42,40,36,89,60,38,30.41,30.36,30.32,10,10,8,13,5,18,0.00,0,,106
2013-5-4,69,55,41,46,40,37,89,60,36,30.35,30.26,30.19,10,10,6,13,4,21,0.00,0,,113
2013-5-5,64,52,39,41,38,35,87,64,41,30.28,30.23,30.16,10,9,7,13,4,16,0.00,1,,106
2013-5-6,66,52,39,52,45,37,93,79,60,30.23,30.18,30.10,10,8,1,13,5,,0.00,6,,89
2013-5-7,72,60,51,59,53,48,94,81,61,30.12,30.07,30.01,10,9,2,18,9,26,0.10,7,Rain,90
2013-5-8,71,62,53,61,56,48,97,82,51,30.02,29.98,29.90,10,8,4,13,7,16,0.06,6,Rain,121
2013-5-9,69,60,53,57,54,50,93,82,66,29.98,29.95,29.92,9,4,2,12,3,,0.02,6,Rain,276
2013-5-10,80,65,50,63,56,48,100,82,42,30.01,29.97,29.87,10,4,0,16,4,24,0.20,4,Fog-Rain-Thunderstorm,222
2013-5-11,75,66,60,62,60,53,100,88,66,29.90,29.80,29.72,10,6,2,12,6,23,0.28,7,Rain,214
2013-5-12,59,52,44,52,37,27,81,54,33,30.00,29.83,29.74,10,10,8,23,11,32,0.00,3,,290
2013-5-13,54,46,37,34,28,23,76,52,32,30.16,30.07,30.00,10,10,10,16,7,24,0.00,3,Rain,300
2013-5-14,59,44,32,46,31,25,86,55,29,30.20,30.13,30.04,10,10,8,13,6,17,0.04,2,Rain,287
2013-5-15,72,60,48,58,51,44,90,75,59,30.06,29.86,29.71,10,9,5,8,4,,0.04,4,Rain,151
2013-5-16,81,67,55,64,56,48,94,77,38,29.89,29.80,29.74,10,5,1,13,3,20,0.06,2,Rain,271
2013-5-17,75,63,51,47,42,36,63,45,30,30.17,30.07,29.91,10,10,10,12,7,,0.00,1,,344
2013-5-18,68,60,54,56,52,45,94,74,54,30.26,30.23,30.18,10,9,2,10,6,,0.09,7,Rain,119
2013-5-19,64,60,57,60,58,55,100,93,84,30.25,30.20,30.14,10,5,1,10,7,,0.02,8,Rain,105
2013-5-20,80,70,60,66,63,59,100,84,62,30.15,30.06,29.98,10,5,0,7,4,,0.01,6,Fog,146
2013-5-21,84,72,60,70,65,59,100,83,62,29.99,29.94,29.86,10,5,0,13,2,17,0.00,3,Fog,197
2013-5-22,89,76,63,70,65,61,100,80,42,29.91,29.87,29.81,10,5,0,17,3,22,0.00,2,Fog,201
2013-5-23,75,69,62,67,64,60,93,83,71,29.88,29.83,29.74,10,7,1,22,6,28,0.73,6,Rain,215
2013-5-24,62,54,46,61,47,35,96,76,57,30.10,29.90,29.72,10,9,4,21,10,30,0.08,8,Rain,315
2013-5-25,64,54,45,34,32,29,63,46,30,30.12,30.07,30.04,10,10,10,22,16,34,0.00,2,,320
2013-5-26,71,58,45,36,33,31,65,42,25,30.22,30.13,30.09,10,10,10,22,11,30,0.00,0,,299
2013-5-27,72,56,42,44,37,33,80,49,25,30.28,30.23,30.17,10,10,10,12,3,,0.00,0,,264
2013-5-28,66,59,54,61,57,43,94,87,59,30.21,30.14,30.09,10,5,2,7,3,,0.28,6,Rain,114
2013-5-29,88,72,57,66,61,57,100,77,41,30.10,30.07,30.04,10,4,0,16,4,23,0.00,2,Fog,232
2013-5-30,91,76,62,65,63,60,94,70,38,30.17,30.13,30.09,10,6,1,10,2,17,0.00,0,,249
2013-5-31,91,78,64,66,63,58,94,65,34,30.15,30.09,30.01,10,7,1,15,3,21,0.00,0,,181